createdAt,value
2023-03-29T00:01:07.532Z,100992.80
2023-03-29T00:03:36.794Z,100999.37
2023-03-29T00:06:05.847Z,100998.83
2023-03-29T00:08:34.414Z,100998.04
2023-03-29T00:11:03.081Z,100995.23
2023-03-29T00:13:31.799Z,100994.56
2023-03-29T00:16:00.216Z,100995.45
2023-03-29T00:18:28.772Z,100993.59
2023-03-29T00:20:58.277Z,100995.20
2023-03-29T00:23:26.844Z,100994.31
2023-03-29T00:25:56.607Z,100997.35
2023-03-29T00:28:25.368Z,100997.69
2023-03-29T00:31:03.894Z,100996.91
2023-03-29T00:33:33.253Z,100997.56
2023-03-29T00:36:02.131Z,100996.72
2023-03-29T00:38:31.546Z,100992.75
2023-03-29T00:41:00.644Z,100996.44
2023-03-29T00:43:29.374Z,101002.68
2023-03-29T00:45:57.733Z,100996.96
2023-03-29T00:48:30.332Z,100997.30
2023-03-29T00:51:10.347Z,100991.36
2023-03-29T00:53:44.528Z,100991.70
2023-03-29T00:56:19.635Z,100994.34
2023-03-29T00:58:57.469Z,100998.26
2023-03-29T01:01:34.257Z,100998.18
2023-03-29T01:04:18.939Z,100998.02
2023-03-29T01:06:55.677Z,100995.43
2023-03-29T01:09:27.470Z,100990.70
2023-03-29T01:11:59.394Z,100992.13
2023-03-29T01:15:03.791Z,100992.94
2023-03-29T01:17:33.320Z,100996.46
2023-03-29T01:20:27.257Z,100999.31
2023-03-29T01:23:14.368Z,100998.98
2023-03-29T01:26:10.057Z,101003.17
2023-03-29T01:29:17.917Z,101010.86
2023-03-29T01:31:51.865Z,101012.63
2023-03-29T01:34:27.533Z,101008.34
2023-03-29T01:37:04.745Z,101006.91
2023-03-29T01:39:35.178Z,101008.49
2023-03-29T01:42:14.683Z,101011.42
2023-03-29T01:44:52.355Z,101013.38
2023-03-29T01:47:23.857Z,101016.63
2023-03-29T01:50:22.149Z,101022.48
2023-03-29T01:53:03.587Z,101023.61
2023-03-29T01:55:36.125Z,101026.73
2023-03-29T01:58:08.586Z,101027.02
2023-03-29T02:00:38.675Z,101031.67
2023-03-29T02:03:10.584Z,101031.44
2023-03-29T02:05:39.719Z,101034.83
2023-03-29T02:08:12.130Z,101038.40
2023-03-29T02:10:40.767Z,101041.39
2023-03-29T02:13:09.451Z,101041.88
2023-03-29T02:15:38.735Z,101042.67
2023-03-29T02:18:07.312Z,101042.71
2023-03-29T02:20:39.288Z,101046.26
2023-03-29T02:23:29.041Z,101046.19
2023-03-29T02:25:57.921Z,101046.52
2023-03-29T02:28:28.391Z,101046.69
2023-03-29T02:31:09.187Z,101045.11
2023-03-29T02:33:47.665Z,101047.39
2023-03-29T02:36:22.843Z,101046.63
2023-03-29T02:38:53.537Z,101043.08
2023-03-29T02:41:25.745Z,101041.98
2023-03-29T02:43:57.242Z,101045.89
2023-03-29T02:46:26.430Z,101052.02
2023-03-29T02:48:57.689Z,101056.09
2023-03-29T02:51:32.299Z,101063.40
2023-03-29T02:54:06.815Z,101070.30
2023-03-29T02:57:06.558Z,101078.11
2023-03-29T02:59:36.016Z,101086.98
2023-03-29T03:02:05.575Z,101086.86
2023-03-29T03:04:35.706Z,101090.46
2023-03-29T03:07:07.301Z,101094.48
2023-03-29T03:09:35.962Z,101093.33
2023-03-29T03:12:04.472Z,101096.98
2023-03-29T03:14:32.846Z,101106.49
2023-03-29T03:17:04.442Z,101107.20
2023-03-29T03:19:34.135Z,101103.13
2023-03-29T03:22:03.373Z,101108.27
2023-03-29T03:24:32.808Z,101112.83
2023-03-29T03:27:01.872Z,101113.86
2023-03-29T03:29:30.429Z,101114.83
2023-03-29T03:31:59.091Z,101117.20
2023-03-29T03:34:57.136Z,101119.71
2023-03-29T03:37:27.794Z,101118.77
2023-03-29T03:39:56.714Z,101117.03
2023-03-29T03:42:30.747Z,101114.06
2023-03-29T03:44:59.415Z,101113.74
2023-03-29T03:47:43.350Z,101112.81
2023-03-29T03:50:24.938Z,101113.36
2023-03-29T03:52:53.495Z,101117.75
2023-03-29T03:55:22.244Z,101115.21
2023-03-29T03:57:53.985Z,101117.81
2023-03-29T04:00:23.707Z,101123.34
2023-03-29T04:03:06.288Z,101126.96
2023-03-29T04:05:40.101Z,101124.02
2023-03-29T04:08:09.079Z,101123.39
2023-03-29T04:10:58.569Z,101133.48
2023-03-29T04:13:36.403Z,101140.73
2023-03-29T04:16:27.886Z,101148.91
2023-03-29T04:18:57.583Z,101151.40
2023-03-29T04:21:26.333Z,101157.52
2023-03-29T04:23:55.037Z,101162.31
2023-03-29T04:26:24.081Z,101160.20
2023-03-29T04:28:59.004Z,101164.16
2023-03-29T04:31:48.676Z,101171.73
2023-03-29T04:34:38.125Z,101181.90
2023-03-29T04:37:10.802Z,101181.35
2023-03-29T04:39:40.002Z,101182.73
2023-03-29T04:42:09.702Z,101184.05
2023-03-29T04:44:38.152Z,101191.59
2023-03-29T04:47:07.618Z,101186.44
2023-03-29T04:49:58.428Z,101187.83
2023-03-29T04:52:36.364Z,101202.11
2023-03-29T04:55:07.261Z,101206.46
2023-03-29T04:57:53.812Z,101204.91
2023-03-29T05:00:29.446Z,101206.09
2023-03-29T05:02:58.200Z,101207.93
2023-03-29T05:05:27.198Z,101217.94
2023-03-29T05:07:56.076Z,101229.27
2023-03-29T05:10:29.162Z,101227.55
2023-03-29T05:12:58.485Z,101228.50
2023-03-29T05:15:27.370Z,101236.22
2023-03-29T05:17:56.375Z,101241.61
2023-03-29T05:20:25.233Z,101245.98
2023-03-29T05:22:56.387Z,101241.11
2023-03-29T05:25:51.657Z,101242.38
2023-03-29T05:28:20.143Z,101248.57
2023-03-29T05:31:00.261Z,101252.44
2023-03-29T05:33:29.579Z,101253.10
2023-03-29T05:36:04.206Z,101249.33
2023-03-29T05:38:35.941Z,101252.40
2023-03-29T05:41:04.675Z,101249.31
2023-03-29T05:43:42.801Z,101251.92
2023-03-29T05:46:12.484Z,101256.85
2023-03-29T05:48:44.256Z,101257.42
2023-03-29T05:51:13.208Z,101260.00
2023-03-29T05:53:41.853Z,101259.25
2023-03-29T05:56:11.437Z,101261.10
2023-03-29T05:58:39.961Z,101262.96
2023-03-29T06:01:15.059Z,101264.11
2023-03-29T06:03:51.353Z,101267.05
2023-03-29T06:06:21.472Z,101267.36
2023-03-29T06:08:50.747Z,101271.51
2023-03-29T06:11:26.602Z,101276.42
2023-03-29T06:14:13.976Z,101278.95
2023-03-29T06:16:47.566Z,101278.84
2023-03-29T06:19:16.184Z,101279.91
2023-03-29T06:21:44.841Z,101284.84
2023-03-29T06:24:15.971Z,101294.88
2023-03-29T06:26:48.232Z,101295.00
2023-03-29T06:29:17.212Z,101295.42
2023-03-29T06:31:47.789Z,101296.23
2023-03-29T06:34:33.098Z,101298.06
2023-03-29T06:37:11.622Z,101302.34
2023-03-29T06:39:41.266Z,101305.30
2023-03-29T06:42:27.246Z,101305.61
2023-03-29T06:45:14.421Z,101303.88
2023-03-29T06:47:47.373Z,101305.88
2023-03-29T06:50:17.600Z,101304.41
2023-03-29T06:53:06.381Z,101306.48
2023-03-29T06:55:36.215Z,101308.30
2023-03-29T06:58:20.871Z,101308.27
2023-03-29T07:00:49.677Z,101306.40
2023-03-29T07:03:25.426Z,101308.36
2023-03-29T07:06:04.638Z,101309.73
2023-03-29T07:08:35.361Z,101314.43
2023-03-29T07:11:08.828Z,101317.58
2023-03-29T07:13:49.317Z,101319.75
2023-03-29T07:16:20.704Z,101321.17
2023-03-29T07:18:57.610Z,101325.39
2023-03-29T07:21:58.944Z,101321.31
2023-03-29T07:24:44.551Z,101319.17
2023-03-29T07:27:13.690Z,101324.31
2023-03-29T07:29:42.294Z,101328.92
2023-03-29T07:32:10.876Z,101326.27
2023-03-29T07:34:46.672Z,101325.41
2023-03-29T07:37:39.857Z,101324.27
2023-03-29T07:40:16.151Z,101327.77
2023-03-29T07:43:09.534Z,101327.36
2023-03-29T07:45:40.865Z,101328.55
2023-03-29T07:48:11.496Z,101327.10
2023-03-29T07:50:48.697Z,101328.64
2023-03-29T07:53:17.582Z,101327.89
2023-03-29T07:55:49.371Z,101330.93
2023-03-29T07:58:38.115Z,101331.63
2023-03-29T08:01:08.690Z,101335.89
2023-03-29T08:04:09.954Z,101336.61
2023-03-29T08:06:57.177Z,101334.71
2023-03-29T08:09:32.216Z,101338.05
2023-03-29T08:12:00.806Z,101339.14
2023-03-29T08:14:34.830Z,101340.69
2023-03-29T08:17:07.893Z,101338.77
2023-03-29T08:19:41.791Z,101336.59
2023-03-29T08:22:22.634Z,101331.81
2023-03-29T08:25:17.028Z,101331.39
2023-03-29T08:27:48.736Z,101326.02
2023-03-29T08:30:23.436Z,101323.52
2023-03-29T08:32:55.152Z,101321.16
2023-03-29T08:35:24.453Z,101324.69
2023-03-29T08:38:05.726Z,101326.31
2023-03-29T08:40:35.109Z,101327.37
2023-03-29T08:43:38.054Z,101328.11
2023-03-29T08:46:57.104Z,101332.56
2023-03-29T08:49:34.425Z,101327.70
2023-03-29T08:52:13.448Z,101324.88
2023-03-29T08:54:46.703Z,101332.36
2023-03-29T08:57:33.817Z,101326.33
2023-03-29T09:00:10.806Z,101322.17
2023-03-29T09:02:42.980Z,101319.37
2023-03-29T09:05:14.784Z,101314.41
2023-03-29T09:07:46.307Z,101319.37
2023-03-29T09:10:18.433Z,101310.44
2023-03-29T09:13:02.854Z,101315.66
2023-03-29T09:15:42.550Z,101317.88
2023-03-29T09:18:45.474Z,101321.58
2023-03-29T09:21:26.828Z,101323.13
2023-03-29T09:24:15.859Z,101324.14
2023-03-29T09:26:54.991Z,101328.42
2023-03-29T09:29:52.486Z,101333.98
2023-03-29T09:32:33.250Z,101333.48
2023-03-29T09:35:38.839Z,101334.50
2023-03-29T09:38:12.643Z,101329.23
2023-03-29T09:40:50.077Z,101331.30
2023-03-29T09:43:38.149Z,101323.90
2023-03-29T09:46:37.433Z,101312.67
2023-03-29T09:49:11.172Z,101312.79
2023-03-29T09:51:42.103Z,101328.31
2023-03-29T09:54:12.651Z,101343.90
2023-03-29T09:57:20.424Z,101340.89
2023-03-29T09:59:52.735Z,101341.99
2023-03-29T10:02:21.971Z,101341.29
2023-03-29T10:05:04.080Z,101337.45
2023-03-29T10:07:46.399Z,101339.27
2023-03-29T10:10:35.622Z,101340.02
2023-03-29T10:13:16.755Z,101335.88
2023-03-29T10:15:45.311Z,101335.08
2023-03-29T10:18:14.309Z,101339.66
2023-03-29T10:20:42.800Z,101344.48
2023-03-29T10:23:18.833Z,101359.26
2023-03-29T10:25:47.660Z,101365.95
2023-03-29T10:28:18.784Z,101367.48
2023-03-29T10:30:54.383Z,101374.96
2023-03-29T10:33:24.823Z,101373.54
2023-03-29T10:35:57.596Z,101378.91
2023-03-29T10:38:29.500Z,101383.80
2023-03-29T10:41:12.545Z,101387.30
2023-03-29T10:43:49.525Z,101389.21
2023-03-29T10:46:30.643Z,101388.71
2023-03-29T10:49:16.065Z,101389.64
2023-03-29T10:51:47.247Z,101393.61
2023-03-29T10:54:20.562Z,101395.30
2023-03-29T10:57:01.585Z,101408.93
2023-03-29T11:00:02.666Z,101414.84
2023-03-29T11:02:31.702Z,101418.56
2023-03-29T11:05:16.589Z,101401.52
2023-03-29T11:07:47.586Z,101386.42
2023-03-29T11:10:43.620Z,101373.55
2023-03-29T11:13:41.343Z,101356.95
2023-03-29T11:16:18.846Z,101345.75
2023-03-29T11:19:20.735Z,101337.21
2023-03-29T11:22:11.098Z,101333.38
2023-03-29T11:25:06.852Z,101327.23
2023-03-29T11:28:09.753Z,101316.42
2023-03-29T11:30:40.871Z,101317.41
2023-03-29T11:33:15.103Z,101315.73
2023-03-29T11:36:04.853Z,101310.79
2023-03-29T11:38:45.220Z,101310.23
2023-03-29T11:41:39.092Z,101312.15
2023-03-29T11:44:19.574Z,101308.34
2023-03-29T11:47:23.288Z,101309.48
2023-03-29T11:49:58.191Z,101310.16
2023-03-29T11:52:47.479Z,101311.22
2023-03-29T11:55:26.243Z,101309.11
2023-03-29T11:58:00.129Z,101306.00
2023-03-29T12:00:39.040Z,101308.18
2023-03-29T12:03:14.478Z,101303.52
2023-03-29T12:05:50.932Z,101296.10
2023-03-29T12:08:23.930Z,101297.26
2023-03-29T12:10:56.860Z,101300.77
2023-03-29T12:13:32.486Z,101296.11
2023-03-29T12:16:16.786Z,101302.90
2023-03-29T12:18:58.457Z,101302.92
2023-03-29T12:21:30.265Z,101307.33
2023-03-29T12:24:01.084Z,101312.79
2023-03-29T12:26:33.879Z,101319.52
2023-03-29T12:29:27.192Z,101314.38
2023-03-29T12:32:36.474Z,101319.83
2023-03-29T12:35:49.776Z,101316.56
2023-03-29T12:38:46.169Z,101315.95
2023-03-29T12:41:37.919Z,101313.31
2023-03-29T12:44:25.155Z,101313.14
2023-03-29T12:47:25.955Z,101311.97
2023-03-29T12:49:59.809Z,101311.90
2023-03-29T12:52:36.467Z,101310.52
2023-03-29T12:55:47.055Z,101308.91
2023-03-29T12:58:38.975Z,101303.79
2023-03-29T13:01:10.842Z,101302.94
2023-03-29T13:04:00.850Z,101303.90
2023-03-29T13:06:34.531Z,101310.03
2023-03-29T13:09:23.251Z,101316.23
2023-03-29T13:11:53.787Z,101321.17
2023-03-29T13:14:30.130Z,101318.55
2023-03-29T13:19:45.071Z,101320.67
2023-03-29T13:22:19.332Z,101317.94
2023-03-29T13:25:15.773Z,101317.73
2023-03-29T13:27:44.188Z,101321.08
2023-03-29T13:30:45.549Z,101321.62
2023-03-29T13:33:37.191Z,101324.96
2023-03-29T13:36:08.986Z,101331.66
2023-03-29T13:38:53.621Z,101333.74
2023-03-29T13:41:33.910Z,101331.73
2023-03-29T13:44:02.692Z,101330.48
2023-03-29T13:46:43.707Z,101335.64
2023-03-29T13:49:14.734Z,101341.27
2023-03-29T13:51:54.817Z,101337.99
2023-03-29T13:54:43.103Z,101337.36
2023-03-29T13:57:19.103Z,101337.56
2023-03-29T14:00:18.347Z,101349.27
2023-03-29T14:03:01.819Z,101351.21
2023-03-29T14:05:37.565Z,101350.55
2023-03-29T14:08:22.001Z,101352.34
2023-03-29T14:10:51.033Z,101356.67
2023-03-29T14:13:23.332Z,101355.02
2023-03-29T14:15:55.447Z,101348.68
2023-03-29T14:18:26.821Z,101353.20
2023-03-29T14:20:56.284Z,101353.55
2023-03-29T14:23:27.461Z,101359.08
2023-03-29T14:26:06.230Z,101361.16
2023-03-29T14:28:34.815Z,101359.71
2023-03-29T14:31:03.720Z,101367.23
2023-03-29T14:33:38.194Z,101364.23
2023-03-29T14:36:07.210Z,101365.73
2023-03-29T14:38:37.727Z,101368.05
2023-03-29T14:41:06.544Z,101367.13
2023-03-29T14:43:34.977Z,101367.67
2023-03-29T14:46:06.462Z,101370.73
2023-03-29T14:48:35.885Z,101377.15
2023-03-29T14:51:05.327Z,101381.02
2023-03-29T14:53:37.343Z,101381.16
2023-03-29T14:56:07.804Z,101381.35
2023-03-29T14:58:36.916Z,101386.44
2023-03-29T15:01:10.882Z,101389.66
2023-03-29T15:03:44.193Z,101393.95
2023-03-29T15:06:14.151Z,101398.94
2023-03-29T15:08:54.106Z,101398.64
2023-03-29T15:11:30.940Z,101394.56
2023-03-29T15:14:08.914Z,101396.09
2023-03-29T15:16:40.879Z,101402.61
2023-03-29T15:19:27.557Z,101404.20
2023-03-29T15:21:56.017Z,101408.36
2023-03-29T15:24:31.216Z,101410.17
2023-03-29T15:27:14.842Z,101415.92
2023-03-29T15:29:46.511Z,101415.86
2023-03-29T15:32:22.860Z,101416.41
2023-03-29T15:35:08.140Z,101423.29
2023-03-29T15:37:37.064Z,101425.71
2023-03-29T15:40:09.880Z,101431.27
2023-03-29T15:42:38.410Z,101431.34
2023-03-29T15:45:07.484Z,101440.30
2023-03-29T15:47:35.887Z,101442.00
2023-03-29T15:50:04.531Z,101446.36
2023-03-29T15:52:33.055Z,101449.30
2023-03-29T15:55:01.633Z,101452.48
2023-03-29T15:57:30.590Z,101453.93
2023-03-29T15:59:59.304Z,101452.03
2023-03-29T16:02:28.204Z,101453.58
2023-03-29T16:04:56.752Z,101457.14
2023-03-29T16:07:25.515Z,101453.92
2023-03-29T16:09:53.857Z,101450.64
2023-03-29T16:12:23.209Z,101453.06
2023-03-29T16:14:51.772Z,101459.23
2023-03-29T16:17:20.057Z,101464.73
2023-03-29T16:19:48.349Z,101471.29
2023-03-29T16:22:16.740Z,101470.66
2023-03-29T16:24:45.086Z,101471.06
2023-03-29T16:27:13.635Z,101473.19
2023-03-29T16:29:42.213Z,101475.35
2023-03-29T16:32:11.235Z,101479.77
2023-03-29T16:34:41.488Z,101479.34
2023-03-29T16:37:09.990Z,101481.15
2023-03-29T16:39:38.491Z,101484.02
2023-03-29T16:42:07.328Z,101486.47
2023-03-29T16:44:35.852Z,101485.02
2023-03-29T16:47:04.474Z,101488.19
2023-03-29T16:49:32.844Z,101492.68
2023-03-29T16:52:01.281Z,101500.48
2023-03-29T16:54:31.828Z,101506.89
2023-03-29T16:57:00.494Z,101506.38
2023-03-29T16:59:28.833Z,101510.95
2023-03-29T17:01:57.368Z,101517.24
2023-03-29T17:04:26.510Z,101511.71
2023-03-29T17:06:54.945Z,101513.20
2023-03-29T17:09:23.301Z,101516.85
2023-03-29T17:11:51.725Z,101520.75
2023-03-29T17:14:20.554Z,101523.27
2023-03-29T17:16:48.876Z,101529.30
2023-03-29T17:19:17.315Z,101527.89
2023-03-29T17:21:46.110Z,101532.36
2023-03-29T17:24:14.576Z,101536.64
2023-03-29T17:26:45.151Z,101538.56
2023-03-29T17:29:14.267Z,101540.73
2023-03-29T17:31:47.931Z,101543.48
2023-03-29T17:34:19.192Z,101541.58
2023-03-29T17:36:47.547Z,101546.45
2023-03-29T17:39:16.173Z,101550.87
2023-03-29T17:41:46.162Z,101554.85
2023-03-29T17:44:14.516Z,101556.83
2023-03-29T17:46:46.463Z,101563.65
2023-03-29T17:49:15.194Z,101565.13
2023-03-29T17:51:43.693Z,101575.56
2023-03-29T17:54:13.001Z,101576.52
2023-03-29T17:56:41.750Z,101580.31
2023-03-29T17:59:10.095Z,101582.98
2023-03-29T18:01:42.039Z,101584.71
2023-03-29T18:04:10.644Z,101589.08
2023-03-29T18:06:39.080Z,101596.89
2023-03-29T18:09:07.880Z,101598.21
2023-03-29T18:11:37.233Z,101596.80
2023-03-29T18:14:05.804Z,101603.77
2023-03-29T18:16:34.670Z,101602.77
2023-03-29T18:19:03.370Z,101605.67
2023-03-29T18:21:31.893Z,101608.63
2023-03-29T18:24:00.535Z,101612.89
2023-03-29T18:26:30.164Z,101611.38
2023-03-29T18:28:58.900Z,101611.86
2023-03-29T18:31:28.227Z,101611.47
2023-03-29T18:33:57.044Z,101615.92
2023-03-29T18:36:25.924Z,101616.89
2023-03-29T18:38:55.992Z,101621.34
2023-03-29T18:41:25.077Z,101626.48
2023-03-29T18:43:58.057Z,101627.88
2023-03-29T18:46:30.596Z,101628.73
2023-03-29T18:49:00.275Z,101631.27
2023-03-29T18:51:29.395Z,101631.44
2023-03-29T18:53:57.839Z,101632.25
2023-03-29T18:56:26.720Z,101629.77
2023-03-29T18:58:55.230Z,101634.24
2023-03-29T19:01:23.945Z,101636.45
2023-03-29T19:03:52.446Z,101634.77
2023-03-29T19:06:21.083Z,101631.68
2023-03-29T19:08:49.422Z,101634.31
2023-03-29T19:11:18.041Z,101634.09
2023-03-29T19:13:50.243Z,101637.42
2023-03-29T19:16:18.594Z,101637.35
2023-03-29T19:18:47.056Z,101637.98
2023-03-29T19:21:15.903Z,101635.48
2023-03-29T19:23:44.412Z,101631.11
2023-03-29T19:26:13.553Z,101631.67
2023-03-29T19:28:42.236Z,101628.83
2023-03-29T19:31:10.995Z,101628.02
2023-03-29T19:33:40.930Z,101626.36
2023-03-29T19:36:09.794Z,101626.42
2023-03-29T19:38:38.822Z,101629.20
2023-03-29T19:41:09.737Z,101629.89
2023-03-29T19:43:38.246Z,101629.35
2023-03-29T19:46:09.699Z,101631.52
2023-03-29T19:48:39.433Z,101639.17
2023-03-29T19:51:08.129Z,101635.45
2023-03-29T19:53:38.642Z,101633.95
2023-03-29T19:56:10.963Z,101634.38
2023-03-29T19:58:40.031Z,101635.23
2023-03-29T20:01:08.598Z,101636.45
2023-03-29T20:03:36.983Z,101633.42
2023-03-29T20:06:05.881Z,101637.25
2023-03-29T20:08:38.898Z,101639.02
2023-03-29T20:11:10.646Z,101637.91
2023-03-29T20:13:42.958Z,101644.28
2023-03-29T20:16:13.964Z,101647.94
2023-03-29T20:18:45.022Z,101642.85
2023-03-29T20:21:16.943Z,101646.52
2023-03-29T20:23:45.640Z,101642.99
2023-03-29T20:26:14.368Z,101643.99
2023-03-29T20:28:43.055Z,101640.73
2023-03-29T20:31:11.399Z,101639.96
2023-03-29T20:33:41.523Z,101637.98
2023-03-29T20:36:11.384Z,101638.52
2023-03-29T20:38:39.882Z,101634.99
2023-03-29T20:41:09.525Z,101637.23
2023-03-29T20:43:38.395Z,101640.26
2023-03-29T20:46:22.997Z,101641.93
2023-03-29T20:48:54.461Z,101637.20
2023-03-29T20:51:33.252Z,101635.02
2023-03-29T20:54:05.068Z,101639.02
2023-03-29T20:56:40.055Z,101636.61
2023-03-29T20:59:12.466Z,101637.34
2023-03-29T21:01:41.218Z,101638.62
2023-03-29T21:04:11.075Z,101639.13
2023-03-29T21:06:39.812Z,101639.52
2023-03-29T21:09:08.708Z,101639.17
2023-03-29T21:11:37.646Z,101639.94
2023-03-29T21:14:06.075Z,101635.00
2023-03-29T21:16:34.519Z,101634.36
2023-03-29T21:19:02.979Z,101635.22
2023-03-29T21:21:31.374Z,101632.10
2023-03-29T21:23:59.748Z,101630.35
2023-03-29T21:26:28.178Z,101632.65
2023-03-29T21:28:56.524Z,101636.75
2023-03-29T21:31:24.940Z,101634.05
2023-03-29T21:33:56.345Z,101631.60
2023-03-29T21:36:25.081Z,101633.95
2023-03-29T21:38:53.617Z,101643.41
2023-03-29T21:41:22.434Z,101643.41
2023-03-29T21:43:50.896Z,101648.37
2023-03-29T21:46:19.461Z,101648.23
2023-03-29T21:48:47.958Z,101647.63
2023-03-29T21:51:16.632Z,101644.95
2023-03-29T21:53:44.865Z,101646.48
2023-03-29T21:56:13.515Z,101642.49
2023-03-29T21:58:42.682Z,101644.90
2023-03-29T22:01:11.197Z,101648.79
2023-03-29T22:03:39.829Z,101647.62
2023-03-29T22:06:09.758Z,101646.31
2023-03-29T22:08:40.902Z,101642.45
2023-03-29T22:11:11.610Z,101643.28
2023-03-29T22:13:41.204Z,101643.54
2023-03-29T22:16:16.797Z,101642.06
2023-03-29T22:18:49.705Z,101642.21
2023-03-29T22:21:31.300Z,101641.67
2023-03-29T22:24:01.352Z,101637.46
2023-03-29T22:26:32.430Z,101633.45
2023-03-29T22:29:01.709Z,101636.48
2023-03-29T22:31:31.707Z,101633.27
2023-03-29T22:34:02.300Z,101635.30
2023-03-29T22:36:31.963Z,101632.10
2023-03-29T22:39:00.826Z,101633.73
2023-03-29T22:41:29.144Z,101634.52
2023-03-29T22:43:58.878Z,101632.02
2023-03-29T22:46:27.878Z,101635.33
2023-03-29T22:48:56.634Z,101640.21
2023-03-29T22:51:25.383Z,101643.61
2023-03-29T22:53:53.802Z,101656.04
2023-03-29T22:56:22.217Z,101655.86
2023-03-29T22:58:51.189Z,101656.19
2023-03-29T23:01:19.819Z,101662.41
2023-03-29T23:03:48.387Z,101660.91
2023-03-29T23:06:16.894Z,101665.92
2023-03-29T23:08:45.351Z,101661.65
2023-03-29T23:11:13.766Z,101668.00
2023-03-29T23:13:42.320Z,101665.48
2023-03-29T23:16:11.347Z,101666.78
2023-03-29T23:18:39.702Z,101669.06
2023-03-29T23:21:10.602Z,101669.91
2023-03-29T23:23:39.541Z,101667.80
2023-03-29T23:26:12.067Z,101668.02
2023-03-29T23:28:41.304Z,101668.59
2023-03-29T23:31:12.136Z,101670.20
2023-03-29T23:33:43.006Z,101675.06
2023-03-29T23:36:15.223Z,101676.60
2023-03-29T23:38:44.896Z,101679.17
2023-03-29T23:41:14.147Z,101677.63
2023-03-29T23:43:44.126Z,101680.77
2023-03-29T23:46:16.065Z,101677.14
2023-03-29T23:48:46.078Z,101675.81
2023-03-29T23:51:15.489Z,101677.67
2023-03-29T23:53:44.215Z,101674.02
2023-03-29T23:56:12.693Z,101679.52
2023-03-29T23:58:41.373Z,101676.92
